Time;durP1;ratioP1;P1;durP2;ratioP2;P2;SDS_P1;SDS_P2;PMS_P1;PMS_P2;Temp;Humidity;BMP_temperature;BMP_pressure;BME280_temperature;BME280_humidity;BME280_pressure;Samples;Min_cycle;Max_cycle;Signal;HPM_P1;HPM_P2
2022/07/08 00:01:33;;;;;;;0.93;0.60;;;21.70;62.60;;;;;;5032590;28;20058;-28
2022/07/08 00:03:59;;;;;;;1.95;0.60;;;21.70;62.60;;;;;;5040141;28;20117;-27
2022/07/08 00:06:24;;;;;;;0.50;0.50;;;21.70;62.60;;;;;;5059188;28;20124;-27
2022/07/08 00:08:50;;;;;;;0.93;0.60;;;21.70;62.60;;;;;;5056437;28;20206;-28
2022/07/08 00:11:16;;;;;;;0.57;0.50;;;21.60;62.70;;;;;;5048512;28;20033;-27
2022/07/08 00:13:41;;;;;;;0.50;0.50;;;21.60;62.80;;;;;;5052942;28;20044;-28
2022/07/08 00:16:07;;;;;;;0.75;0.70;;;21.60;62.70;;;;;;5051785;28;20049;-28
2022/07/08 00:18:32;;;;;;;0.55;0.50;;;21.50;62.70;;;;;;5044097;28;20053;-28
2022/07/08 00:20:58;;;;;;;0.85;0.70;;;21.60;62.90;;;;;;5036281;28;20063;-27
2022/07/08 00:23:24;;;;;;;0.63;0.50;;;21.50;62.80;;;;;;5052889;28;20040;-27
2022/07/08 00:25:49;;;;;;;0.70;0.70;;;21.60;62.90;;;;;;5041207;28;20045;-28
2022/07/08 00:28:15;;;;;;;0.40;0.40;;;21.50;62.80;;;;;;5040310;28;20521;-28
2022/07/08 00:30:40;;;;;;;0.40;0.40;;;21.50;62.90;;;;;;5039277;28;20045;-27
2022/07/08 00:33:06;;;;;;;0.80;0.60;;;21.50;62.90;;;;;;5048901;28;20048;-28
2022/07/08 00:35:32;;;;;;;0.50;0.50;;;21.50;62.90;;;;;;5051655;28;20501;-28
2022/07/08 00:37:57;;;;;;;0.80;0.80;;;21.50;63.00;;;;;;5053891;28;20106;-28
2022/07/08 00:40:23;;;;;;;0.75;0.75;;;21.40;63.00;;;;;;5058650;28;20052;-28
2022/07/08 00:42:48;;;;;;;1.00;0.63;;;21.40;63.10;;;;;;5047996;28;20068;-28
2022/07/08 00:45:17;;;;;;;0.60;0.60;;;21.40;63.10;;;;;;5051559;28;20045;-28
2022/07/08 00:47:43;;;;;;;0.60;0.60;;;21.40;63.10;;;;;;5037276;28;20076;-27
2022/07/08 00:50:09;;;;;;;0.82;0.60;;;21.40;63.20;;;;;;5058855;28;20449;-28
2022/07/08 00:52:38;;;;;;;0.68;0.68;;;21.40;63.10;;;;;;5049377;28;20045;-27
2022/07/08 00:55:05;;;;;;;0.50;0.50;;;21.40;63.20;;;;;;5053663;28;20722;-28
2022/07/08 00:57:30;;;;;;;0.50;0.50;;;21.30;63.10;;;;;;5039127;28;20044;-27
2022/07/08 00:59:56;;;;;;;0.52;0.52;;;21.30;63.20;;;;;;5055811;28;20037;-28
2022/07/08 01:02:21;;;;;;;0.50;0.50;;;21.30;63.20;;;;;;5058007;28;20071;-27
2022/07/08 01:04:47;;;;;;;0.50;0.50;;;21.30;63.10;;;;;;5039790;28;20510;-27
2022/07/08 01:07:13;;;;;;;0.68;0.68;;;21.30;63.20;;;;;;5059511;28;20036;-28
2022/07/08 01:09:38;;;;;;;0.63;0.50;;;21.20;63.30;;;;;;5063294;28;20048;-27
2022/07/08 01:12:04;;;;;;;0.60;0.60;;;21.20;63.90;;;;;;5058733;28;20052;-27
2022/07/08 01:14:30;;;;;;;1.23;0.80;;;21.20;63.30;;;;;;5064066;28;20665;-27
2022/07/08 01:16:55;;;;;;;0.50;0.40;;;21.20;63.30;;;;;;5063944;28;20578;-28
2022/07/08 01:19:21;;;;;;;0.52;0.52;;;21.20;63.40;;;;;;5060699;28;20124;-27
2022/07/08 01:21:47;;;;;;;0.85;0.50;;;21.20;63.40;;;;;;5063294;28;20045;-27
2022/07/08 01:24:12;;;;;;;1.10;0.80;;;21.10;63.40;;;;;;5063605;28;20405;-28
2022/07/08 01:26:38;;;;;;;1.95;0.77;;;21.10;63.40;;;;;;5063391;28;20056;-28
2022/07/08 01:29:03;;;;;;;1.05;0.77;;;21.10;63.40;;;;;;5064187;28;20522;-28
2022/07/08 01:31:29;;;;;;;0.40;0.40;;;21.10;63.40;;;;;;5057374;28;20063;-27
2022/07/08 01:33:54;;;;;;;0.55;0.55;;;21.10;63.50;;;;;;5055258;28;20052;-28
2022/07/08 01:36:20;;;;;;;0.60;0.60;;;21.10;63.60;;;;;;5037880;28;20430;-27
2022/07/08 01:38:46;;;;;;;0.68;0.68;;;21.10;63.60;;;;;;5055444;28;20224;-27
2022/07/08 01:41:11;;;;;;;0.55;0.50;;;21.10;63.70;;;;;;5061647;28;20036;-28
2022/07/08 01:43:37;;;;;;;1.10;0.60;;;21.00;63.70;;;;;;5057348;28;20045;-28
2022/07/08 01:46:02;;;;;;;1.30;0.60;;;21.00;63.80;;;;;;5056014;28;20102;-28
2022/07/08 01:48:28;;;;;;;0.60;0.60;;;21.00;63.80;;;;;;5050916;28;20047;-28
2022/07/08 01:50:53;;;;;;;0.60;0.60;;;21.00;63.80;;;;;;5052778;28;20045;-27
2022/07/08 01:53:19;;;;;;;0.50;0.50;;;20.90;63.80;;;;;;5040751;28;20041;-28
2022/07/08 01:55:45;;;;;;;0.80;0.80;;;20.90;63.70;;;;;;5062337;28;20132;-28
2022/07/08 01:58:11;;;;;;;0.70;0.70;;;20.90;64.60;;;;;;5061479;28;20489;-28
2022/07/08 02:00:37;;;;;;;0.50;0.50;;;20.90;63.80;;;;;;5065874;28;20048;-28
2022/07/08 02:03:02;;;;;;;0.60;0.60;;;20.90;63.90;;;;;;5062109;28;20044;-28
2022/07/08 02:05:28;;;;;;;0.57;0.57;;;20.90;63.80;;;;;;5061194;28;20075;-28
2022/07/08 02:07:54;;;;;;;0.82;0.63;;;20.80;63.70;;;;;;5057548;28;20494;-28
2022/07/08 02:10:19;;;;;;;0.75;0.50;;;20.80;63.70;;;;;;5055797;28;20135;-27
2022/07/08 02:12:45;;;;;;;0.80;0.70;;;20.80;63.70;;;;;;5052448;28;20413;-27
2022/07/08 02:15:10;;;;;;;1.50;0.70;;;20.80;63.70;;;;;;5063251;28;20090;-27
2022/07/08 02:17:40;;;;;;;0.65;0.60;;;20.80;63.80;;;;;;5060994;28;20040;-27
2022/07/08 02:20:08;;;;;;;0.63;0.63;;;20.80;63.70;;;;;;5060794;28;20449;-28
2022/07/08 02:22:34;;;;;;;0.70;0.70;;;20.80;63.80;;;;;;5052984;28;20072;-28
2022/07/08 02:24:59;;;;;;;0.50;0.50;;;20.70;63.80;;;;;;5064900;28;20080;-27
2022/07/08 02:27:25;;;;;;;0.55;0.55;;;20.70;63.80;;;;;;5062832;28;20518;-27
2022/07/08 02:29:50;;;;;;;0.47;0.40;;;20.70;63.90;;;;;;5047164;28;20120;-28
2022/07/08 02:32:16;;;;;;;0.50;0.50;;;20.70;63.80;;;;;;5037282;28;20494;-27
2022/07/08 02:34:42;;;;;;;0.65;0.65;;;20.70;64.00;;;;;;5056370;28;20084;-27
2022/07/08 02:37:08;;;;;;;1.63;0.55;;;20.70;63.80;;;;;;5044011;28;20044;-27
2022/07/08 02:39:33;;;;;;;0.98;0.63;;;20.70;64.70;;;;;;5041211;28;20086;-28
2022/07/08 02:41:59;;;;;;;0.50;0.50;;;20.70;63.90;;;;;;5041058;28;20116;-28
2022/07/08 02:44:25;;;;;;;0.60;0.60;;;20.60;63.90;;;;;;5057646;28;20052;-28
2022/07/08 02:46:50;;;;;;;0.80;0.55;;;20.60;63.90;;;;;;5040711;28;20050;-28
2022/07/08 02:49:16;;;;;;;0.60;0.60;;;20.60;64.00;;;;;;5063385;28;20082;-28
2022/07/08 02:51:41;;;;;;;0.43;0.43;;;20.60;63.90;;;;;;5065870;28;20036;-28
2022/07/08 02:54:07;;;;;;;0.60;0.60;;;20.60;64.10;;;;;;5063610;28;20041;-28
2022/07/08 02:56:33;;;;;;;0.60;0.60;;;20.60;64.00;;;;;;5065906;28;20048;-27
2022/07/08 02:58:59;;;;;;;0.50;0.50;;;20.50;63.90;;;;;;5064864;28;20101;-27
2022/07/08 03:01:24;;;;;;;0.73;0.50;;;20.50;63.90;;;;;;5054613;28;20090;-28
2022/07/08 03:03:50;;;;;;;0.63;0.63;;;20.50;64.10;;;;;;5055771;28;20466;-28
2022/07/08 03:06:16;;;;;;;0.40;0.40;;;20.50;64.00;;;;;;5067560;28;20098;-28
2022/07/08 03:08:41;;;;;;;0.88;0.63;;;20.50;63.90;;;;;;5066720;28;20172;-27
2022/07/08 03:11:07;;;;;;;0.70;0.70;;;20.40;63.80;;;;;;5066565;28;20052;-27
2022/07/08 03:13:35;;;;;;;0.68;0.50;;;20.40;63.80;;;;;;5059313;28;20048;-28
2022/07/08 03:16:01;;;;;;;0.70;0.70;;;20.40;63.80;;;;;;5059616;28;20041;-27
2022/07/08 03:18:26;;;;;;;0.90;0.90;;;20.40;63.80;;;;;;5053893;28;20091;-27
2022/07/08 03:20:52;;;;;;;0.70;0.70;;;20.40;63.80;;;;;;5052137;28;20045;-27
2022/07/08 03:23:17;;;;;;;1.05;1.00;;;20.40;63.90;;;;;;5052082;28;20631;-28
2022/07/08 03:25:43;;;;;;;0.70;0.70;;;20.40;63.90;;;;;;5058294;28;20604;-27
2022/07/08 03:28:08;;;;;;;0.77;0.77;;;20.40;64.80;;;;;;5055396;28;20048;-28
2022/07/08 03:30:34;;;;;;;0.60;0.60;;;20.40;64.10;;;;;;5060145;28;20517;-28
2022/07/08 03:33:00;;;;;;;0.77;0.77;;;20.30;64.10;;;;;;5053160;28;20060;-28
2022/07/08 03:35:26;;;;;;;0.77;0.77;;;20.30;64.10;;;;;;5054867;28;20492;-28
2022/07/08 03:37:52;;;;;;;0.77;0.68;;;20.30;64.00;;;;;;5054386;28;20397;-28
2022/07/08 03:43:02;;;;;;;;;;;20.30;64.00;;;;;;5038150;28;21027;-27
2022/07/08 03:45:27;;;;;;;0.60;0.52;;;20.30;64.00;;;;;;5039401;28;19956;-27
2022/07/08 03:47:53;;;;;;;1.35;1.00;;;20.20;64.00;;;;;;5042524;28;20076;-27
2022/07/08 03:50:19;;;;;;;1.27;0.88;;;20.20;64.10;;;;;;5041247;28;20413;-28
2022/07/08 03:52:45;;;;;;;1.17;0.70;;;20.20;64.00;;;;;;5035915;28;20674;-28
2022/07/08 03:55:11;;;;;;;0.75;0.75;;;20.20;64.00;;;;;;5041274;28;20037;-27
2022/07/08 03:57:36;;;;;;;0.70;0.70;;;20.20;63.90;;;;;;5042275;28;20438;-27
2022/07/08 04:00:03;;;;;;;0.60;0.60;;;20.20;64.00;;;;;;5041235;28;20044;-27
2022/07/08 04:02:29;;;;;;;0.68;0.68;;;20.20;63.80;;;;;;5055078;28;20144;-27
2022/07/08 04:04:55;;;;;;;1.13;1.02;;;20.20;64.00;;;;;;5049679;28;20561;-28
2022/07/08 04:07:20;;;;;;;0.88;0.73;;;20.20;64.10;;;;;;5039492;28;20403;-27
2022/07/08 04:09:46;;;;;;;0.60;0.60;;;20.20;64.00;;;;;;5035420;28;20053;-27
2022/07/08 04:12:11;;;;;;;0.85;0.70;;;20.10;64.00;;;;;;5036691;28;20576;-27
2022/07/08 04:14:37;;;;;;;0.80;0.80;;;20.20;64.00;;;;;;5030718;28;20051;-25
2022/07/08 04:17:03;;;;;;;1.00;0.90;;;20.10;64.20;;;;;;5037858;28;20064;-27
2022/07/08 04:19:28;;;;;;;2.30;1.13;;;19.80;65.20;;;;;;5036734;28;20041;-26
2022/07/08 04:21:54;;;;;;;1.65;1.27;;;19.60;66.30;;;;;;5034566;28;20489;-27
2022/07/08 04:24:19;;;;;;;1.23;1.00;;;19.40;67.20;;;;;;5033351;28;20041;-27
2022/07/08 04:26:45;;;;;;;0.90;0.90;;;19.30;67.20;;;;;;5064477;28;20397;-27
2022/07/08 04:29:11;;;;;;;1.02;1.02;;;19.30;68.20;;;;;;5068922;28;20060;-27
2022/07/08 04:31:36;;;;;;;1.20;1.10;;;19.10;67.90;;;;;;5052138;28;20050;-27
2022/07/08 04:34:02;;;;;;;1.40;1.30;;;19.20;67.90;;;;;;5063680;28;20094;-27
2022/07/08 04:36:27;;;;;;;10.20;2.08;;;19.10;68.00;;;;;;5066043;28;20098;-27
2022/07/08 04:38:53;;;;;;;0.93;0.90;;;19.10;67.80;;;;;;5064608;28;20052;-27
2022/07/08 04:41:19;;;;;;;1.33;1.13;;;19.00;68.20;;;;;;5061190;28;20090;-28
2022/07/08 04:43:44;;;;;;;1.42;1.25;;;19.00;68.40;;;;;;5062118;28;20039;-28
2022/07/08 04:46:11;;;;;;;1.38;1.27;;;18.90;68.50;;;;;;5062058;28;20522;-27
2022/07/08 04:48:36;;;;;;;1.10;1.02;;;18.90;68.70;;;;;;5062321;28;20040;-26
2022/07/08 04:51:02;;;;;;;1.15;1.05;;;19.00;68.40;;;;;;5058100;28;20054;-27
2022/07/08 04:53:28;;;;;;;1.40;1.30;;;18.80;68.90;;;;;;5044409;28;20048;-27
2022/07/08 04:55:53;;;;;;;1.88;1.42;;;18.80;69.00;;;;;;5062724;28;20040;-27
2022/07/08 04:58:19;;;;;;;1.27;1.27;;;18.70;69.20;;;;;;5052885;28;20135;-27
2022/07/08 05:00:44;;;;;;;1.30;1.30;;;18.70;69.20;;;;;;5048403;28;20044;-27
2022/07/08 05:03:10;;;;;;;1.70;1.48;;;18.70;70.10;;;;;;5064340;28;20489;-27
2022/07/08 05:05:35;;;;;;;1.38;1.27;;;18.70;69.60;;;;;;5045154;28;20041;-29
2022/07/08 05:08:01;;;;;;;1.20;1.10;;;18.60;70.50;;;;;;5044481;28;20072;-27
2022/07/08 05:10:27;;;;;;;1.95;1.35;;;18.60;69.80;;;;;;5042671;28;20084;-28
2022/07/08 05:12:54;;;;;;;1.33;1.23;;;18.70;69.80;;;;;;5045634;28;20084;-27
2022/07/08 05:15:19;;;;;;;1.50;1.25;;;18.60;69.80;;;;;;5045313;28;20474;-27
2022/07/08 05:17:45;;;;;;;1.80;1.40;;;18.60;70.10;;;;;;5046656;28;20120;-27
2022/07/08 05:20:11;;;;;;;2.35;1.40;;;18.60;70.00;;;;;;5031704;28;20044;-27
2022/07/08 05:22:37;;;;;;;1.35;1.25;;;18.60;70.30;;;;;;5060287;28;20044;-29
2022/07/08 05:25:06;;;;;;;1.13;1.02;;;18.60;70.50;;;;;;5062060;28;20046;-27
2022/07/08 05:27:31;;;;;;;1.80;1.20;;;18.60;70.40;;;;;;5063287;28;20057;-28
2022/07/08 05:29:57;;;;;;;1.15;1.00;;;18.60;70.70;;;;;;5064519;28;20504;-27
2022/07/08 05:32:23;;;;;;;2.20;1.08;;;18.70;70.40;;;;;;5059271;28;20124;-27
2022/07/08 05:34:48;;;;;;;1.15;1.00;;;18.80;70.10;;;;;;4697237;28;10000536;-27
2022/07/08 05:37:14;;;;;;;1.13;1.02;;;18.70;70.30;;;;;;5050501;28;20064;-28
2022/07/08 05:39:40;;;;;;;1.05;0.80;;;18.70;71.50;;;;;;5040766;28;20047;-28
2022/07/08 05:42:07;;;;;;;1.27;1.00;;;18.70;70.50;;;;;;5046891;28;20049;-28
2022/07/08 05:44:33;;;;;;;0.82;0.82;;;18.70;70.30;;;;;;5049927;28;20110;-27
2022/07/08 05:46:59;;;;;;;1.75;0.90;;;18.70;70.30;;;;;;5049215;28;20056;-27
2022/07/08 05:49:24;;;;;;;0.70;0.70;;;18.70;70.40;;;;;;5043223;28;20453;-28
2022/07/08 05:51:50;;;;;;;2.25;0.90;;;18.70;70.70;;;;;;5032979;28;20103;-28
2022/07/08 05:54:16;;;;;;;1.15;1.08;;;18.70;70.80;;;;;;5027001;28;20068;-28
2022/07/08 05:56:41;;;;;;;1.00;0.90;;;18.70;70.80;;;;;;5033564;28;20048;-28
2022/07/08 05:59:07;;;;;;;0.77;0.77;;;18.70;70.90;;;;;;5038603;28;20498;-27
2022/07/08 06:01:32;;;;;;;0.77;0.70;;;18.70;71.30;;;;;;5045430;28;20056;-28
2022/07/08 06:03:58;;;;;;;1.60;0.90;;;18.60;71.50;;;;;;5028341;28;20086;-28
2022/07/08 06:06:23;;;;;;;1.15;1.00;;;18.70;71.50;;;;;;5032898;28;20048;-27
2022/07/08 06:08:49;;;;;;;0.70;0.65;;;18.70;71.60;;;;;;5049561;28;20567;-28
2022/07/08 06:11:15;;;;;;;1.05;0.75;;;18.80;71.60;;;;;;5057633;28;20052;-28
2022/07/08 06:13:40;;;;;;;0.70;0.68;;;18.80;71.60;;;;;;5056992;28;20044;-29
2022/07/08 06:16:06;;;;;;;1.85;0.85;;;18.80;71.70;;;;;;5034041;28;20045;-27
2022/07/08 06:18:33;;;;;;;0.95;0.85;;;18.80;71.70;;;;;;5033909;28;20059;-28
2022/07/08 06:20:59;;;;;;;1.27;0.93;;;18.80;71.90;;;;;;5055399;28;20489;-28
2022/07/08 06:23:24;;;;;;;1.10;1.10;;;18.80;72.20;;;;;;5041046;28;20045;-27
2022/07/08 06:25:50;;;;;;;1.10;1.00;;;18.80;72.10;;;;;;5043407;28;20068;-28
2022/07/08 06:28:16;;;;;;;0.70;0.70;;;18.80;72.50;;;;;;5052652;28;20448;-28
2022/07/08 06:30:42;;;;;;;1.65;1.10;;;18.80;72.80;;;;;;5050105;28;20040;-27
2022/07/08 06:33:08;;;;;;;0.65;0.60;;;18.80;73.00;;;;;;5057978;28;20067;-29
2022/07/08 06:35:33;;;;;;;0.65;0.65;;;18.80;73.00;;;;;;5052395;28;20171;-28
2022/07/08 06:37:59;;;;;;;0.65;0.63;;;18.80;73.20;;;;;;5052906;28;20049;-28
2022/07/08 06:40:25;;;;;;;0.70;0.70;;;18.80;73.40;;;;;;5049140;28;20560;-28
2022/07/08 06:42:51;;;;;;;2.03;0.70;;;18.80;73.20;;;;;;5057896;28;20045;-28
2022/07/08 06:45:16;;;;;;;1.85;0.40;;;19.00;72.50;;;;;;5048939;28;20043;-28
2022/07/08 06:47:42;;;;;;;0.50;0.50;;;19.10;71.90;;;;;;5054939;28;20390;-28
2022/07/08 06:50:08;;;;;;;1.77;0.50;;;19.10;71.50;;;;;;5036652;28;20036;-26
2022/07/08 06:52:34;;;;;;;0.75;0.60;;;19.20;71.20;;;;;;5035439;28;20513;-28
2022/07/08 06:54:59;;;;;;;1.02;0.50;;;19.20;71.00;;;;;;5063637;28;20056;-28
2022/07/08 06:57:25;;;;;;;0.50;0.50;;;19.20;70.70;;;;;;5066043;28;20414;-28
2022/07/08 06:59:51;;;;;;;0.80;0.60;;;19.30;70.50;;;;;;5065186;28;20106;-28
2022/07/08 07:02:17;;;;;;;1.15;0.50;;;19.30;70.20;;;;;;5060140;28;20090;-28
2022/07/08 07:04:42;;;;;;;0.40;0.40;;;19.40;70.70;;;;;;5053587;28;20072;-27
2022/07/08 07:07:08;;;;;;;0.63;0.63;;;19.50;69.70;;;;;;5058150;28;20462;-28
2022/07/08 07:09:33;;;;;;;1.20;0.40;;;19.50;69.30;;;;;;5041735;28;20059;-28
2022/07/08 07:11:59;;;;;;;0.85;0.52;;;19.50;69.00;;;;;;5065302;28;20061;-28
2022/07/08 07:14:25;;;;;;;0.57;0.50;;;19.50;68.80;;;;;;5058388;28;20072;-28
2022/07/08 07:16:50;;;;;;;0.68;0.68;;;19.60;68.70;;;;;;5044602;28;20045;-27
2022/07/08 07:19:16;;;;;;;0.50;0.50;;;19.60;68.50;;;;;;5057026;28;20098;-27
2022/07/08 07:21:42;;;;;;;0.60;0.60;;;19.60;68.30;;;;;;5041295;28;20056;-27
2022/07/08 07:24:07;;;;;;;1.38;0.30;;;19.70;68.00;;;;;;5054706;28;20431;-28
2022/07/08 07:26:33;;;;;;;1.15;0.50;;;19.70;67.60;;;;;;5055567;28;20057;-28
2022/07/08 07:28:58;;;;;;;0.55;0.55;;;19.70;68.40;;;;;;5048675;28;20046;-27
2022/07/08 07:31:24;;;;;;;0.60;0.60;;;19.80;67.50;;;;;;5056466;28;20032;-27
2022/07/08 07:33:50;;;;;;;0.40;0.40;;;19.80;67.50;;;;;;5054832;28;20046;-27
2022/07/08 07:36:15;;;;;;;0.40;0.40;;;19.80;67.20;;;;;;5058098;28;20034;-28
2022/07/08 07:38:41;;;;;;;0.63;0.43;;;19.80;67.10;;;;;;5055685;28;20497;-26
2022/07/08 07:41:06;;;;;;;0.50;0.50;;;19.90;67.10;;;;;;5050996;28;20048;-28
2022/07/08 07:43:32;;;;;;;0.47;0.47;;;19.80;67.00;;;;;;5061526;28;20106;-27
2022/07/08 07:45:57;;;;;;;0.40;0.40;;;19.90;66.90;;;;;;5053868;28;20048;-27
2022/07/08 07:48:23;;;;;;;0.82;0.30;;;19.90;67.60;;;;;;5059487;28;20121;-28
2022/07/08 07:50:49;;;;;;;2.72;0.60;;;19.90;66.80;;;;;;5055206;28;20048;-27
2022/07/08 07:53:14;;;;;;;1.02;0.40;;;19.90;66.60;;;;;;5058632;28;20048;-28
2022/07/08 07:55:40;;;;;;;0.63;0.40;;;19.90;66.50;;;;;;5057806;28;20057;-27
2022/07/08 07:58:05;;;;;;;0.40;0.40;;;20.00;66.60;;;;;;5053510;28;20142;-27
2022/07/08 08:00:31;;;;;;;0.40;0.40;;;19.90;66.50;;;;;;5058235;28;20053;-27
2022/07/08 08:02:56;;;;;;;0.45;0.40;;;20.00;66.30;;;;;;5053238;28;20733;-27
2022/07/08 08:05:22;;;;;;;0.40;0.40;;;20.00;66.40;;;;;;5057635;28;20037;-28
2022/07/08 08:07:48;;;;;;;0.43;0.32;;;20.00;66.10;;;;;;5039608;28;20047;-27
2022/07/08 08:10:14;;;;;;;0.50;0.47;;;20.00;66.30;;;;;;5054486;28;20274;-27
2022/07/08 08:12:41;;;;;;;0.32;0.32;;;20.00;66.20;;;;;;5055993;28;20040;-28
2022/07/08 08:15:07;;;;;;;0.30;0.30;;;20.00;66.20;;;;;;5049406;28;20493;-27
2022/07/08 08:17:36;;;;;;;0.40;0.40;;;20.00;66.10;;;;;;5057964;28;20060;-28
2022/07/08 08:20:04;;;;;;;0.57;0.57;;;20.00;65.90;;;;;;5058241;28;20083;-29
2022/07/08 08:22:29;;;;;;;0.47;0.47;;;20.10;66.10;;;;;;5038755;28;20094;-28
2022/07/08 08:24:55;;;;;;;0.40;0.40;;;20.10;65.90;;;;;;5062154;28;20040;-27
2022/07/08 08:27:21;;;;;;;0.32;0.32;;;20.10;65.70;;;;;;5054489;28;20045;-28
2022/07/08 08:29:46;;;;;;;0.40;0.40;;;20.10;65.80;;;;;;5053794;28;20056;-28
2022/07/08 08:32:12;;;;;;;0.60;0.60;;;20.10;65.70;;;;;;5052562;28;20056;-28
2022/07/08 08:34:37;;;;;;;0.30;0.30;;;20.10;65.80;;;;;;5066838;28;20514;-28
2022/07/08 08:37:03;;;;;;;0.30;0.30;;;20.10;65.50;;;;;;5064436;28;20059;-27
2022/07/08 08:39:29;;;;;;;0.38;0.38;;;20.20;65.50;;;;;;5061079;28;20064;-28
2022/07/08 08:41:54;;;;;;;0.30;0.30;;;20.20;65.50;;;;;;5056784;28;20049;-27
2022/07/08 08:44:20;;;;;;;0.43;0.30;;;20.20;65.40;;;;;;5056338;28;20127;-28
2022/07/08 08:46:45;;;;;;;0.20;0.20;;;20.20;65.40;;;;;;5058487;28;20044;-27
2022/07/08 08:49:11;;;;;;;0.40;0.40;;;20.20;65.30;;;;;;5054262;28;20501;-27
2022/07/08 08:51:37;;;;;;;0.30;0.30;;;20.20;65.20;;;;;;5056842;28;20052;-27
2022/07/08 08:54:03;;;;;;;0.90;0.30;;;20.30;65.10;;;;;;5056765;28;20048;-28
2022/07/08 08:56:29;;;;;;;0.30;0.30;;;20.30;65.00;;;;;;5039103;28;20076;-28
2022/07/08 08:58:54;;;;;;;0.30;0.20;;;20.30;64.90;;;;;;5040060;28;20080;-27
2022/07/08 09:01:20;;;;;;;0.38;0.38;;;20.30;64.80;;;;;;5056544;28;20404;-27
2022/07/08 09:03:46;;;;;;;0.20;0.20;;;20.30;64.80;;;;;;5061553;28;20033;-26
2022/07/08 09:06:11;;;;;;;0.30;0.30;;;20.30;64.70;;;;;;5058889;28;20048;-28
2022/07/08 09:08:38;;;;;;;0.30;0.28;;;20.40;64.90;;;;;;5054909;28;20128;-27
2022/07/08 09:11:04;;;;;;;0.30;0.30;;;20.40;64.60;;;;;;5053396;28;20051;-28
2022/07/08 09:13:30;;;;;;;0.32;0.22;;;20.40;64.60;;;;;;5037266;28;20041;-28
2022/07/08 09:15:59;;;;;;;0.30;0.30;;;20.40;64.40;;;;;;5039815;28;20047;-28
2022/07/08 09:18:32;;;;;;;0.20;0.20;;;20.40;64.50;;;;;;5039418;28;20048;-28
2022/07/08 09:20:59;;;;;;;0.20;0.20;;;20.40;64.30;;;;;;5061518;28;20089;-28
2022/07/08 09:23:26;;;;;;;0.60;0.35;;;20.50;64.40;;;;;;5053928;28;20111;-28
2022/07/08 09:25:59;;;;;;;0.22;0.22;;;20.50;64.40;;;;;;5055012;28;20037;-27
2022/07/08 09:28:37;;;;;;;0.30;0.30;;;20.50;64.30;;;;;;5054607;28;20432;-28
2022/07/08 09:31:07;;;;;;;0.30;0.22;;;20.50;64.40;;;;;;5050672;28;20048;-28
2022/07/08 09:33:33;;;;;;;0.28;0.28;;;20.50;64.30;;;;;;5055991;28;20382;-28
2022/07/08 09:36:02;;;;;;;0.25;0.25;;;20.50;64.30;;;;;;5053716;28;20055;-28
2022/07/08 09:38:34;;;;;;;0.30;0.30;;;20.50;64.20;;;;;;5057968;28;20045;-28
2022/07/08 09:41:03;;;;;;;0.30;0.20;;;20.60;64.30;;;;;;5052226;28;20063;-28
2022/07/08 09:43:29;;;;;;;0.30;0.30;;;20.60;64.10;;;;;;5050563;28;20414;-27
2022/07/08 09:46:05;;;;;;;0.28;0.28;;;20.60;64.90;;;;;;5056016;28;20040;-27
2022/07/08 09:48:30;;;;;;;0.20;0.20;;;20.60;64.00;;;;;;5052642;28;20493;-28
2022/07/08 09:50:56;;;;;;;0.20;0.20;;;20.60;64.00;;;;;;5047856;28;20043;-28
2022/07/08 09:53:23;;;;;;;0.20;0.20;;;20.60;64.00;;;;;;5055382;28;20045;-28
2022/07/08 09:55:53;;;;;;;0.10;0.10;;;20.60;64.70;;;;;;5057075;28;20063;-27
2022/07/08 09:58:20;;;;;;;0.30;0.30;;;20.60;63.90;;;;;;5046927;28;20032;-27
2022/07/08 10:00:47;;;;;;;0.20;0.20;;;20.60;64.00;;;;;;5053009;28;20040;-27
2022/07/08 10:03:12;;;;;;;1.13;0.20;;;20.60;63.90;;;;;;5052402;28;20124;-28
2022/07/08 10:05:39;;;;;;;0.28;0.28;;;20.60;63.80;;;;;;5037037;28;20475;-28
2022/07/08 10:08:05;;;;;;;0.20;0.20;;;20.70;63.80;;;;;;5062319;28;20036;-27
2022/07/08 10:10:32;;;;;;;0.80;0.20;;;20.70;63.80;;;;;;5037795;28;20127;-28
2022/07/08 10:12:58;;;;;;;0.20;0.20;;;20.70;63.70;;;;;;5053338;28;20056;-28
2022/07/08 10:15:24;;;;;;;0.30;0.30;;;20.70;63.80;;;;;;5038272;28;20091;-28
2022/07/08 10:17:50;;;;;;;0.28;0.22;;;20.70;63.60;;;;;;5046936;28;20052;-28
2022/07/08 10:20:16;;;;;;;0.30;0.20;;;20.80;63.80;;;;;;5044134;28;20045;-28
2022/07/08 10:22:43;;;;;;;0.30;0.30;;;20.80;63.70;;;;;;5059666;28;20043;-27
2022/07/08 10:25:09;;;;;;;0.20;0.20;;;20.80;63.60;;;;;;5044027;28;20162;-28
2022/07/08 10:27:36;;;;;;;0.20;0.20;;;20.80;63.90;;;;;;5051842;28;20509;-27
2022/07/08 10:30:21;;;;;;;0.20;0.20;;;20.80;64.10;;;;;;5049071;28;20473;-28
2022/07/08 10:32:48;;;;;;;0.13;0.13;;;20.80;64.00;;;;;;5054631;28;20128;-28
2022/07/08 10:35:20;;;;;;;0.28;0.20;;;20.80;64.00;;;;;;5051602;28;20045;-28
2022/07/08 10:37:46;;;;;;;0.20;0.20;;;20.80;64.00;;;;;;5030622;28;20048;-29
2022/07/08 10:40:12;;;;;;;0.30;0.28;;;20.90;64.00;;;;;;5036288;28;20056;-28
2022/07/08 10:42:41;;;;;;;1.17;0.68;;;20.90;63.70;;;;;;5030771;28;20525;-28
2022/07/08 10:45:09;;;;;;;0.28;0.20;;;20.90;63.90;;;;;;5035564;28;20048;-29
2022/07/08 10:47:34;;;;;;;0.30;0.30;;;21.00;64.00;;;;;;5037630;28;20056;-28
2022/07/08 10:50:07;;;;;;;2.03;0.22;;;21.00;63.60;;;;;;5031977;28;20104;-28
2022/07/08 10:52:40;;;;;;;0.20;0.20;;;21.10;63.70;;;;;;5039659;28;20088;-28
2022/07/08 10:55:15;;;;;;;0.63;0.30;;;21.10;63.60;;;;;;5042740;28;20052;-28
2022/07/08 10:57:57;;;;;;;0.38;0.30;;;21.00;63.70;;;;;;5039893;28;20127;-28
2022/07/08 11:00:23;;;;;;;0.50;0.20;;;21.00;63.60;;;;;;5026510;28;20063;-28
2022/07/08 11:02:49;;;;;;;0.40;0.30;;;21.10;63.60;;;;;;5041139;28;20049;-28
2022/07/08 11:05:34;;;;;;;0.30;0.30;;;21.10;63.60;;;;;;5046792;28;20056;-28
2022/07/08 11:08:26;;;;;;;0.47;0.38;;;21.10;63.80;;;;;;5045846;28;20049;-29
2022/07/08 11:10:52;;;;;;;0.40;0.40;;;21.10;63.60;;;;;;5039084;28;20064;-27
2022/07/08 11:13:21;;;;;;;0.57;0.30;;;21.10;63.60;;;;;;5031679;28;20253;-28
2022/07/08 11:15:47;;;;;;;0.30;0.30;;;21.20;63.50;;;;;;5039131;28;20078;-27
2022/07/08 11:18:21;;;;;;;0.25;0.25;;;21.10;63.60;;;;;;5046527;28;20056;-29
2022/07/08 11:20:46;;;;;;;0.75;0.30;;;21.20;63.70;;;;;;5052744;28;20076;-28
2022/07/08 11:23:12;;;;;;;0.20;0.20;;;21.20;63.80;;;;;;5045914;28;20043;-28
2022/07/08 11:25:38;;;;;;;0.25;0.20;;;21.30;63.70;;;;;;5046960;28;20643;-57
2022/07/08 11:28:18;;;;;;;0.57;0.40;;;21.30;63.60;;;;;;5027058;28;20052;-63
2022/07/08 11:30:43;;;;;;;0.40;0.38;;;21.30;63.50;;;;;;5039340;28;20429;-56
2022/07/08 11:33:09;;;;;;;0.32;0.32;;;21.40;63.50;;;;;;5038151;28;20045;-62
2022/07/08 11:35:38;;;;;;;1.98;0.32;;;21.40;63.60;;;;;;5059185;28;20043;-61
2022/07/08 11:38:04;;;;;;;0.22;0.20;;;21.40;63.30;;;;;;5048110;28;20052;-61
2022/07/08 11:40:29;;;;;;;0.25;0.20;;;21.40;63.10;;;;;;5038654;28;20037;-61
2022/07/08 11:42:55;;;;;;;0.40;0.20;;;21.40;63.30;;;;;;5036922;28;20045;-61
2022/07/08 11:45:20;;;;;;;0.20;0.20;;;21.30;63.30;;;;;;5058148;28;20500;-61
2022/07/08 11:47:46;;;;;;;0.77;0.22;;;21.30;63.40;;;;;;5052006;28;20036;-61
2022/07/08 11:50:12;;;;;;;0.63;0.20;;;21.30;63.40;;;;;;5063894;28;20048;-61
2022/07/08 11:52:37;;;;;;;0.40;0.20;;;21.40;63.40;;;;;;5060085;28;20033;-61
2022/07/08 11:55:06;;;;;;;0.17;0.17;;;21.40;63.50;;;;;;5050628;28;20114;-61
2022/07/08 11:57:32;;;;;;;0.20;0.20;;;21.30;63.30;;;;;;5052964;28;20413;-61
2022/07/08 11:59:57;;;;;;;0.30;0.20;;;21.40;63.40;;;;;;5061460;28;20040;-60
2022/07/08 12:02:24;;;;;;;0.13;0.13;;;21.30;63.30;;;;;;5053563;28;20127;-61
2022/07/08 12:04:50;;;;;;;0.20;0.10;;;21.40;64.20;;;;;;5048936;28;20041;-61
2022/07/08 12:07:22;;;;;;;0.20;0.20;;;21.40;63.40;;;;;;5065390;28;20048;-61
2022/07/08 12:09:55;;;;;;;0.20;0.20;;;21.40;63.30;;;;;;5052324;28;20127;-61
2022/07/08 12:12:22;;;;;;;0.20;0.20;;;21.40;63.30;;;;;;5058967;28;20085;-61
2022/07/08 12:14:47;;;;;;;0.30;0.20;;;21.40;63.30;;;;;;5039746;28;20083;-61
2022/07/08 12:17:24;;;;;;;0.13;0.10;;;21.40;63.30;;;;;;5059131;28;20501;-61
2022/07/08 12:19:53;;;;;;;0.20;0.10;;;21.40;64.00;;;;;;5055058;28;20061;-60
2022/07/08 12:22:45;;;;;;;0.17;0.17;;;21.40;63.20;;;;;;5060408;28;20048;-60
2022/07/08 12:25:11;;;;;;;0.20;0.20;;;21.40;63.20;;;;;;5058385;28;20138;-60
2022/07/08 12:27:37;;;;;;;1.45;0.20;;;21.40;64.00;;;;;;5055434;28;20048;-60
2022/07/08 12:30:04;;;;;;;0.22;0.20;;;21.50;63.20;;;;;;5062645;28;20041;-60
2022/07/08 12:32:42;;;;;;;0.20;0.20;;;21.50;63.20;;;;;;5037995;28;20041;-60
2022/07/08 12:35:09;;;;;;;0.38;0.20;;;21.40;63.20;;;;;;5038991;28;20037;-60
2022/07/08 12:37:34;;;;;;;0.40;0.20;;;21.50;63.30;;;;;;5040854;28;20123;-60
2022/07/08 12:40:19;;;;;;;0.55;0.20;;;21.50;63.20;;;;;;5062107;28;20067;-59
2022/07/08 12:43:05;;;;;;;0.10;0.10;;;21.50;63.20;;;;;;5052088;28;20052;-60
2022/07/08 12:45:31;;;;;;;0.30;0.20;;;21.50;63.20;;;;;;5038407;28;20056;-60
2022/07/08 12:47:57;;;;;;;0.20;0.20;;;21.50;63.10;;;;;;5041456;28;20636;-60